createdAt,value
2023-03-04T00:01:16.461Z,8.75
2023-03-04T00:03:45.828Z,7.65
2023-03-04T00:06:15.507Z,7.82
2023-03-04T00:08:44.953Z,8.10
2023-03-04T00:11:14.480Z,7.72
2023-03-04T00:13:45.277Z,7.80
2023-03-04T00:16:14.818Z,7.10
2023-03-04T00:18:44.186Z,6.88
2023-03-04T00:21:13.772Z,6.82
2023-03-04T00:23:43.784Z,7.70
2023-03-04T00:26:13.691Z,7.07
2023-03-04T00:28:46.565Z,6.25
2023-03-04T00:31:16.409Z,7.35
2023-03-04T00:33:45.713Z,7.80
2023-03-04T00:36:15.229Z,6.45
2023-03-04T00:38:44.848Z,6.43
2023-03-04T00:41:14.410Z,8.68
2023-03-04T00:43:45.539Z,7.55
2023-03-04T00:46:15.542Z,7.88
2023-03-04T00:48:44.828Z,7.03
2023-03-04T00:51:14.340Z,7.65
2023-03-04T00:53:44.140Z,5.80
2023-03-04T00:56:13.636Z,7.18
2023-03-04T00:58:43.015Z,6.30
2023-03-04T01:01:14.484Z,5.85
2023-03-04T01:03:43.915Z,6.82
2023-03-04T01:06:13.772Z,6.95
2023-03-04T01:08:43.057Z,5.82
2023-03-04T01:11:12.790Z,5.88
2023-03-04T01:13:42.794Z,8.23
2023-03-04T01:16:14.243Z,5.30
2023-03-04T01:18:43.521Z,6.15
2023-03-04T01:21:13.158Z,6.20
2023-03-04T01:23:42.499Z,7.20
2023-03-04T01:26:12.172Z,5.68
2023-03-04T01:28:41.520Z,6.00
2023-03-04T01:31:11.163Z,5.35
2023-03-04T01:33:41.911Z,5.45
2023-03-04T01:36:13.261Z,5.15
2023-03-04T01:38:42.678Z,5.38
2023-03-04T01:41:13.434Z,6.45
2023-03-04T01:43:43.166Z,4.57
2023-03-04T01:46:15.223Z,6.07
2023-03-04T01:48:46.896Z,4.70
2023-03-04T01:51:19.042Z,6.68
2023-03-04T01:53:50.336Z,6.38
2023-03-04T01:56:24.161Z,5.03
2023-03-04T01:59:11.623Z,4.93
2023-03-04T02:01:43.123Z,5.95
2023-03-04T02:04:15.218Z,5.45
2023-03-04T02:06:46.183Z,5.22
2023-03-04T02:09:17.806Z,5.15
2023-03-04T02:11:49.354Z,4.82
2023-03-04T02:14:19.418Z,4.72
2023-03-04T02:16:50.708Z,4.88
2023-03-04T02:19:38.740Z,4.10
2023-03-04T02:22:08.572Z,4.10
2023-03-04T02:24:42.690Z,5.00
2023-03-04T02:27:13.970Z,5.10
2023-03-04T02:29:43.490Z,4.68
2023-03-04T02:32:14.601Z,4.28
2023-03-04T02:34:48.792Z,3.78
2023-03-04T02:37:19.989Z,4.70
2023-03-04T02:39:51.625Z,5.22
2023-03-04T02:42:22.607Z,5.35
2023-03-04T02:45:01.379Z,6.07
2023-03-04T02:47:31.293Z,6.32
2023-03-04T02:50:00.798Z,4.47
2023-03-04T02:52:30.718Z,6.05
2023-03-04T02:55:00.429Z,4.75
2023-03-04T02:57:31.572Z,4.88
2023-03-04T03:00:00.874Z,4.95
2023-03-04T03:02:31.098Z,5.05
2023-03-04T03:05:00.773Z,3.60
2023-03-04T03:07:31.142Z,2.80
2023-03-04T03:10:01.528Z,3.70
2023-03-04T03:12:32.787Z,3.72
2023-03-04T03:15:02.205Z,3.92
2023-03-04T03:17:31.887Z,3.65
2023-03-04T03:20:01.522Z,3.53
2023-03-04T03:22:31.420Z,4.00
2023-03-04T03:25:00.682Z,3.15
2023-03-04T03:27:32.036Z,4.28
2023-03-04T03:30:01.640Z,3.55
2023-03-04T03:33:56.025Z,4.25
2023-03-04T03:36:25.833Z,4.43
2023-03-04T03:38:55.235Z,2.58
2023-03-04T03:41:24.862Z,3.70
2023-03-04T03:43:55.491Z,3.28
2023-03-04T03:46:25.201Z,3.60
2023-03-04T03:48:54.431Z,3.30
2023-03-04T03:51:24.000Z,3.53
2023-03-04T03:53:53.526Z,3.78
2023-03-04T03:56:23.121Z,3.63
2023-03-04T03:58:52.349Z,2.90
2023-03-04T04:01:23.497Z,3.72
2023-03-04T04:03:52.805Z,3.17
2023-03-04T04:06:22.504Z,3.28
2023-03-04T04:08:51.767Z,3.03
2023-03-04T04:11:21.464Z,3.83
2023-03-04T04:13:50.793Z,2.90
2023-03-04T04:16:20.663Z,3.38
2023-03-04T04:18:51.421Z,3.38
2023-03-04T04:21:21.008Z,2.92
2023-03-04T04:23:50.531Z,2.78
2023-03-04T04:26:20.089Z,3.00
2023-03-04T04:28:49.675Z,2.50
2023-03-04T04:31:19.217Z,2.63
2023-03-04T04:33:48.444Z,3.00
2023-03-04T04:36:19.390Z,2.88
2023-03-04T04:38:49.499Z,2.67
2023-03-04T04:41:22.393Z,3.50
2023-03-04T04:43:51.802Z,2.70
2023-03-04T04:46:21.768Z,2.50
2023-03-04T04:48:51.249Z,3.20
2023-03-04T04:51:22.212Z,2.88
2023-03-04T04:53:51.685Z,4.30
2023-03-04T04:56:24.761Z,2.65
2023-03-04T04:58:55.429Z,2.33
2023-03-04T05:01:25.640Z,2.70
2023-03-04T05:03:55.567Z,2.67
2023-03-04T05:06:26.701Z,2.70
2023-03-04T05:08:56.175Z,2.78
2023-03-04T05:11:25.875Z,2.40
2023-03-04T05:13:55.177Z,2.55
2023-03-04T05:16:25.206Z,2.33
2023-03-04T05:18:54.499Z,2.45
2023-03-04T05:21:25.450Z,2.50
2023-03-04T05:23:54.780Z,2.72
2023-03-04T05:26:24.297Z,2.40
2023-03-04T05:28:53.466Z,3.10
2023-03-04T05:31:23.255Z,2.75
2023-03-04T05:33:52.708Z,2.40
2023-03-04T05:36:22.300Z,2.63
2023-03-04T05:38:53.175Z,2.45
2023-03-04T05:41:23.048Z,2.25
2023-03-04T05:43:52.574Z,2.42
2023-03-04T05:46:25.715Z,2.70
2023-03-04T05:48:55.914Z,2.33
2023-03-04T05:51:25.571Z,2.10
2023-03-04T05:53:56.214Z,2.30
2023-03-04T05:56:25.756Z,2.22
2023-03-04T05:58:57.885Z,2.05
2023-03-04T06:01:27.735Z,2.95
2023-03-04T06:03:56.982Z,2.15
2023-03-04T06:06:26.594Z,2.40
2023-03-04T06:08:57.182Z,4.22
2023-03-04T06:11:26.776Z,5.35
2023-03-04T06:13:56.207Z,4.10
2023-03-04T06:16:25.973Z,3.03
2023-03-04T06:18:55.323Z,2.15
2023-03-04T06:21:25.159Z,2.10
2023-03-04T06:23:54.565Z,2.90
2023-03-04T06:26:25.708Z,2.25
2023-03-04T06:28:57.149Z,1.90
2023-03-04T06:31:26.924Z,1.58
2023-03-04T06:33:56.313Z,1.52
2023-03-04T06:36:26.339Z,1.80
2023-03-04T06:38:55.808Z,1.60
2023-03-04T06:41:26.930Z,1.73
2023-03-04T06:43:56.333Z,1.40
2023-03-04T06:46:26.060Z,2.50
2023-03-04T06:48:55.806Z,1.45
2023-03-04T06:51:25.354Z,1.70
2023-03-04T06:53:54.637Z,1.98
2023-03-04T06:56:25.529Z,3.08
2023-03-04T06:58:54.959Z,2.67
2023-03-04T07:01:27.944Z,1.80
2023-03-04T07:03:58.592Z,2.35
2023-03-04T07:06:29.499Z,2.80
2023-03-04T07:08:59.229Z,2.20
2023-03-04T07:11:30.352Z,2.10
2023-03-04T07:14:00.411Z,1.70
2023-03-04T07:16:30.349Z,1.60
2023-03-04T07:18:59.883Z,1.60
2023-03-04T07:21:29.865Z,1.85
2023-03-04T07:23:59.223Z,1.40
2023-03-04T07:26:30.141Z,1.13
2023-03-04T07:29:00.012Z,2.28
2023-03-04T07:31:32.115Z,1.55
2023-03-04T07:34:03.532Z,1.95
2023-03-04T07:36:34.730Z,1.40
2023-03-04T07:39:05.052Z,1.48
2023-03-04T07:41:37.318Z,1.98
2023-03-04T07:44:08.084Z,1.73
2023-03-04T07:46:37.764Z,1.50
2023-03-04T07:49:07.491Z,1.77
2023-03-04T07:51:37.301Z,1.63
2023-03-04T07:54:06.907Z,1.50
2023-03-04T07:56:38.177Z,2.85
2023-03-04T07:59:07.589Z,1.88
2023-03-04T08:01:39.244Z,1.52
2023-03-04T08:04:09.608Z,1.40
2023-03-04T08:06:41.295Z,1.42
2023-03-04T08:09:13.615Z,1.33
2023-03-04T08:11:44.888Z,1.20
2023-03-04T08:14:15.024Z,0.95
2023-03-04T08:16:44.659Z,1.52
2023-03-04T08:19:14.639Z,1.50
2023-03-04T08:21:44.465Z,1.38
2023-03-04T08:24:14.125Z,1.05
2023-03-04T08:26:47.360Z,1.30
2023-03-04T08:29:19.120Z,0.95
2023-03-04T08:31:49.383Z,1.20
2023-03-04T08:39:33.449Z,1.42
2023-03-04T08:56:33.332Z,0.90
2023-03-04T08:59:02.627Z,1.52
2023-03-04T09:01:32.213Z,1.08
2023-03-04T09:04:01.629Z,0.80
2023-03-04T09:06:31.211Z,0.90
2023-03-04T09:09:00.500Z,1.00
2023-03-04T09:11:30.211Z,0.90
2023-03-04T09:14:00.820Z,0.85
2023-03-04T09:16:30.371Z,0.70
2023-03-04T09:19:01.135Z,0.70
2023-03-04T09:21:30.624Z,0.50
2023-03-04T09:24:00.014Z,0.80
2023-03-04T09:26:31.087Z,0.65
2023-03-04T09:29:03.436Z,0.50
2023-03-04T09:31:33.225Z,0.70
2023-03-04T09:34:02.846Z,1.30
2023-03-04T09:36:32.393Z,1.30
2023-03-04T09:39:02.425Z,1.13
2023-03-04T09:41:39.295Z,1.60
2023-03-04T09:44:20.713Z,1.13
2023-03-04T09:46:51.392Z,1.00
2023-03-04T09:49:22.188Z,1.63
2023-03-04T09:52:00.280Z,1.00
2023-03-04T09:54:48.247Z,1.10
2023-03-04T09:57:29.280Z,2.10
2023-03-04T10:00:13.807Z,1.70
2023-03-04T10:02:59.737Z,1.50
2023-03-04T10:05:31.420Z,1.67
2023-03-04T10:08:07.190Z,1.20
2023-03-04T10:10:43.957Z,0.90
2023-03-04T10:13:18.166Z,0.95
2023-03-04T10:15:51.814Z,1.25
2023-03-04T10:18:25.171Z,1.00
2023-03-04T10:20:59.763Z,1.13
2023-03-04T10:23:32.389Z,1.00
2023-03-04T10:26:11.401Z,0.70
2023-03-04T10:28:41.894Z,1.00
2023-03-04T10:31:18.854Z,0.90
2023-03-04T10:33:48.494Z,0.80
2023-03-04T10:36:34.662Z,1.42
2023-03-04T10:39:08.806Z,0.73
2023-03-04T10:41:43.111Z,0.70
2023-03-04T10:44:18.363Z,0.80
2023-03-04T10:46:50.460Z,0.80
2023-03-04T10:49:21.397Z,0.95
2023-03-04T10:51:53.314Z,0.70
2023-03-04T10:54:32.460Z,0.70
2023-03-04T10:57:03.957Z,0.70
2023-03-04T10:59:40.579Z,1.30
2023-03-04T11:02:21.311Z,1.70
2023-03-04T11:04:54.235Z,1.08
2023-03-04T11:07:25.378Z,1.25
2023-03-04T11:09:58.209Z,1.40
2023-03-04T11:12:35.438Z,1.85
2023-03-04T11:15:05.953Z,1.27
2023-03-04T11:17:48.387Z,0.82
2023-03-04T11:20:27.720Z,1.42
2023-03-04T11:23:04.429Z,1.00
2023-03-04T11:25:37.055Z,1.30
2023-03-04T11:28:14.449Z,1.83
2023-03-04T11:30:48.048Z,1.95
2023-03-04T11:33:26.465Z,1.40
2023-03-04T11:36:05.112Z,1.80
2023-03-04T11:38:37.799Z,1.67
2023-03-04T11:41:12.759Z,0.98
2023-03-04T11:43:46.295Z,1.45
2023-03-04T11:46:42.097Z,2.13
2023-03-04T11:49:42.310Z,2.10
2023-03-04T11:52:24.555Z,1.50
2023-03-04T11:55:18.140Z,1.50
2023-03-04T11:57:57.700Z,1.40
2023-03-04T12:00:40.150Z,1.52
2023-03-04T12:03:38.501Z,1.77
2023-03-04T12:06:18.343Z,1.20
2023-03-04T12:09:03.595Z,1.40
2023-03-04T12:11:43.859Z,1.05
2023-03-04T12:14:25.466Z,1.27
2023-03-04T12:17:13.585Z,1.02
2023-03-04T12:20:00.083Z,2.50
2023-03-04T12:22:43.744Z,1.40
2023-03-04T12:25:34.580Z,0.95
2023-03-04T12:28:23.690Z,0.93
2023-03-04T12:31:09.321Z,0.93
2023-03-04T12:33:47.014Z,1.23
2023-03-04T12:36:24.348Z,1.20
2023-03-04T12:39:07.268Z,1.30
2023-03-04T12:41:47.637Z,1.30
2023-03-04T12:44:19.344Z,0.88
2023-03-04T12:47:14.423Z,1.80
2023-03-04T12:49:54.159Z,0.90
2023-03-04T12:52:33.795Z,1.30
2023-03-04T12:55:09.532Z,0.85
2023-03-04T12:57:40.565Z,0.90
2023-03-04T13:00:21.552Z,1.40
2023-03-04T13:03:03.443Z,1.95
2023-03-04T13:06:03.948Z,1.30
2023-03-04T13:08:40.753Z,1.45
2023-03-04T13:11:41.793Z,1.80
2023-03-04T13:14:27.444Z,1.27
2023-03-04T13:17:01.607Z,1.00
2023-03-04T13:19:52.897Z,1.13
2023-03-04T13:22:55.461Z,1.55
2023-03-04T13:25:44.062Z,0.82
2023-03-04T13:28:29.448Z,1.35
2023-03-04T13:31:18.567Z,1.40
2023-03-04T13:33:57.759Z,1.00
2023-03-04T13:36:56.070Z,1.70
2023-03-04T13:39:38.118Z,1.60
2023-03-04T13:42:46.225Z,1.33
2023-03-04T13:45:39.198Z,1.92
2023-03-04T13:48:33.343Z,0.85
2023-03-04T13:51:03.179Z,1.02
2023-03-04T13:53:43.017Z,0.80
2023-03-04T13:56:24.047Z,1.42
2023-03-04T13:59:03.599Z,1.50
2023-03-04T14:01:36.287Z,1.00
2023-03-04T14:04:18.144Z,1.13
2023-03-04T14:06:48.713Z,0.70
2023-03-04T14:09:21.908Z,0.68
2023-03-04T14:11:52.678Z,1.17
2023-03-04T14:14:25.411Z,1.00
2023-03-04T14:16:59.062Z,1.23
2023-03-04T14:19:31.284Z,1.23
2023-03-04T14:22:02.054Z,0.93
2023-03-04T14:24:32.350Z,1.45
2023-03-04T14:27:14.883Z,1.10
2023-03-04T14:29:44.459Z,1.00
2023-03-04T14:32:15.633Z,1.77
2023-03-04T14:34:45.177Z,1.23
2023-03-04T14:37:26.910Z,0.80
2023-03-04T14:39:59.896Z,1.27
2023-03-04T14:42:38.843Z,0.88
2023-03-04T14:45:12.320Z,0.90
2023-03-04T14:47:47.568Z,1.80
2023-03-04T14:50:19.952Z,1.13
2023-03-04T14:52:51.950Z,2.13
2023-03-04T14:55:26.566Z,2.28
2023-03-04T14:58:07.430Z,1.98
2023-03-04T15:00:39.139Z,1.30
2023-03-04T15:03:21.992Z,1.00
2023-03-04T15:05:52.986Z,1.42
2023-03-04T15:08:26.005Z,1.30
2023-03-04T15:10:58.295Z,1.30
2023-03-04T15:13:40.798Z,1.27
2023-03-04T15:16:11.736Z,1.50
2023-03-04T15:18:56.412Z,1.23
2023-03-04T15:21:40.873Z,1.25
2023-03-04T15:24:13.658Z,1.30
2023-03-04T15:26:46.142Z,2.00
2023-03-04T15:29:17.933Z,1.13
2023-03-04T15:31:49.121Z,1.33
2023-03-04T15:34:22.089Z,1.45
2023-03-04T15:36:52.702Z,1.23
2023-03-04T15:39:23.530Z,1.55
2023-03-04T15:41:53.435Z,1.08
2023-03-04T15:44:22.766Z,1.08
2023-03-04T15:46:52.566Z,1.20
2023-03-04T15:49:23.456Z,1.48
2023-03-04T15:51:53.815Z,1.00
2023-03-04T15:54:27.165Z,1.48
2023-03-04T15:56:58.492Z,1.00
2023-03-04T15:59:28.183Z,1.33
2023-03-04T16:01:57.686Z,1.83
2023-03-04T16:04:28.596Z,0.98
2023-03-04T16:07:00.994Z,1.50
2023-03-04T16:09:30.819Z,1.63
2023-03-04T16:12:02.121Z,1.50
2023-03-04T16:14:31.379Z,1.85
2023-03-04T16:17:00.940Z,1.40
2023-03-04T16:19:31.678Z,1.42
2023-03-04T16:22:01.383Z,2.05
2023-03-04T16:24:33.579Z,1.55
2023-03-04T16:27:06.209Z,1.85
2023-03-04T16:29:35.493Z,1.67
2023-03-04T16:32:05.186Z,1.80
2023-03-04T16:34:35.872Z,1.98
2023-03-04T16:37:13.619Z,1.70
2023-03-04T16:39:46.239Z,2.78
2023-03-04T16:42:19.170Z,4.22
2023-03-04T16:44:49.145Z,4.45
2023-03-04T16:47:18.746Z,2.50
2023-03-04T16:49:50.413Z,3.15
2023-03-04T16:52:26.170Z,2.67
2023-03-04T16:54:55.884Z,6.65
2023-03-04T16:57:28.478Z,5.50
2023-03-04T16:59:57.963Z,2.92
2023-03-04T17:02:27.858Z,8.18
2023-03-04T17:04:59.467Z,3.03
2023-03-04T17:07:29.311Z,4.47
2023-03-04T17:09:58.577Z,3.88
2023-03-04T17:12:28.107Z,2.92
2023-03-04T17:14:57.470Z,3.70
2023-03-04T17:17:27.979Z,2.50
2023-03-04T17:19:59.007Z,2.22
2023-03-04T17:22:28.612Z,3.10
2023-03-04T17:24:58.026Z,3.25
2023-03-04T17:27:27.734Z,2.60
2023-03-04T17:29:57.240Z,1.95
2023-03-04T17:32:27.572Z,2.60
2023-03-04T17:34:58.294Z,3.17
2023-03-04T17:37:28.309Z,3.60
2023-03-04T17:39:57.711Z,4.45
2023-03-04T17:42:27.582Z,5.03
2023-03-04T17:44:56.946Z,3.72
2023-03-04T17:47:26.735Z,4.50
2023-03-04T17:49:57.377Z,3.55
2023-03-04T17:52:27.016Z,4.55
2023-03-04T17:54:56.377Z,6.07
2023-03-04T17:57:25.936Z,8.57
2023-03-04T17:59:56.237Z,5.40
2023-03-04T18:02:25.818Z,4.40
2023-03-04T18:04:55.111Z,4.07
2023-03-04T18:07:26.205Z,4.32
2023-03-04T18:09:55.595Z,3.45
2023-03-04T18:12:25.133Z,3.35
2023-03-04T18:14:54.465Z,4.32
2023-03-04T18:17:24.000Z,4.70
2023-03-04T18:19:53.286Z,5.05
2023-03-04T18:22:22.794Z,4.57
2023-03-04T18:24:53.537Z,6.13
2023-03-04T18:27:23.289Z,6.13
2023-03-04T18:29:52.807Z,8.63
2023-03-04T18:32:22.594Z,8.23
2023-03-04T18:34:51.862Z,6.45
2023-03-04T18:37:21.614Z,7.18
2023-03-04T18:39:52.482Z,7.55
2023-03-04T18:42:22.593Z,7.00
2023-03-04T18:44:51.991Z,7.10
2023-03-04T18:47:21.940Z,9.88
2023-03-04T18:49:51.890Z,8.05
2023-03-04T18:52:21.729Z,10.30
2023-03-04T18:54:52.411Z,9.82
2023-03-04T18:57:22.110Z,7.93
2023-03-04T18:59:53.998Z,8.10
2023-03-04T19:02:27.639Z,7.28
2023-03-04T19:05:04.668Z,8.40
2023-03-04T19:07:34.666Z,6.95
2023-03-04T19:10:05.565Z,7.13
2023-03-04T19:12:35.370Z,5.50
2023-03-04T19:15:05.813Z,5.75
2023-03-04T19:17:36.152Z,7.50
2023-03-04T19:20:07.202Z,9.50
2023-03-04T19:22:37.514Z,8.65
2023-03-04T19:25:09.667Z,12.50
2023-03-04T19:27:39.276Z,10.32
2023-03-04T19:30:10.229Z,8.73
2023-03-04T19:32:39.945Z,6.72
2023-03-04T19:35:10.709Z,5.70
2023-03-04T19:37:40.690Z,5.18
2023-03-04T19:40:12.780Z,5.55
2023-03-04T19:42:44.753Z,5.10
2023-03-04T19:45:15.046Z,5.40
2023-03-04T19:47:45.062Z,6.38
2023-03-04T19:50:14.712Z,6.18
2023-03-04T19:52:46.751Z,6.40
2023-03-04T19:55:17.749Z,17.77
2023-03-04T19:57:47.437Z,12.55
2023-03-04T20:00:17.737Z,6.22
2023-03-04T20:02:49.174Z,6.00
2023-03-04T20:05:19.163Z,4.50
2023-03-04T20:07:48.679Z,5.55
2023-03-04T20:10:19.781Z,4.85
2023-03-04T20:12:49.424Z,5.55
2023-03-04T20:15:18.842Z,5.30
2023-03-04T20:17:48.391Z,7.35
2023-03-04T20:20:18.032Z,6.60
2023-03-04T20:22:47.639Z,6.57
2023-03-04T20:25:18.450Z,6.82
2023-03-04T20:27:48.236Z,6.07
2023-03-04T20:30:18.120Z,6.13
2023-03-04T20:32:48.945Z,6.38
2023-03-04T20:35:18.399Z,6.43
2023-03-04T20:37:48.138Z,5.93
2023-03-04T20:40:19.722Z,5.70
2023-03-04T20:42:49.538Z,5.93
2023-03-04T20:45:20.339Z,5.65
2023-03-04T20:47:50.331Z,9.43
2023-03-04T20:50:19.638Z,5.82
2023-03-04T20:52:49.783Z,5.05
2023-03-04T20:55:20.546Z,5.47
2023-03-04T20:57:50.329Z,4.13
2023-03-04T21:00:24.408Z,5.00
2023-03-04T21:02:55.185Z,5.50
2023-03-04T21:05:24.898Z,4.85
2023-03-04T21:07:56.863Z,5.13
2023-03-04T21:10:27.883Z,4.53
2023-03-04T21:13:00.517Z,4.70
2023-03-04T21:15:29.993Z,4.75
2023-03-04T21:17:59.704Z,5.38
2023-03-04T21:20:29.385Z,5.13
2023-03-04T21:22:59.222Z,5.57
2023-03-04T21:25:31.130Z,6.05
2023-03-04T21:28:00.775Z,6.65
2023-03-04T21:30:30.180Z,4.50
2023-03-04T21:33:00.485Z,3.97
2023-03-04T21:35:30.048Z,3.78
2023-03-04T21:37:59.654Z,4.05
2023-03-04T21:40:30.309Z,3.55
2023-03-04T21:43:00.518Z,4.57
2023-03-04T21:45:29.834Z,4.43
2023-03-04T21:47:59.494Z,4.30
2023-03-04T21:50:29.058Z,2.75
2023-03-04T21:52:58.732Z,2.92
2023-03-04T21:55:28.002Z,3.25
2023-03-04T21:57:59.095Z,3.42
2023-03-04T22:00:28.446Z,2.67
2023-03-04T22:02:58.193Z,3.45
2023-03-04T22:05:27.579Z,2.80
2023-03-04T22:07:57.187Z,2.72
2023-03-04T22:10:26.540Z,3.00
2023-03-04T22:12:57.542Z,2.97
2023-03-04T22:15:26.954Z,3.75
2023-03-04T22:17:56.635Z,3.15
2023-03-04T22:20:26.006Z,3.10
2023-03-04T22:22:55.553Z,2.63
2023-03-04T22:25:24.931Z,3.53
2023-03-04T22:27:54.653Z,3.10
2023-03-04T22:30:25.454Z,3.30
2023-03-04T22:32:55.039Z,3.15
2023-03-04T22:35:24.350Z,3.05
2023-03-04T22:37:54.156Z,3.15
2023-03-04T22:40:23.491Z,3.15
2023-03-04T22:42:53.135Z,2.95
2023-03-04T22:45:22.696Z,2.83
2023-03-04T22:47:54.051Z,3.13
2023-03-04T22:50:23.648Z,3.67
2023-03-04T22:52:53.368Z,3.90
2023-03-04T22:55:24.090Z,16.80
2023-03-04T22:57:53.633Z,27.85
2023-03-04T23:00:25.240Z,4.40
2023-03-04T23:02:56.731Z,5.30
2023-03-04T23:05:25.993Z,12.77
2023-03-04T23:07:55.712Z,21.35
2023-03-04T23:10:26.425Z,4.88
2023-03-04T23:12:55.969Z,5.28
2023-03-04T23:15:25.343Z,8.05
2023-03-04T23:17:56.342Z,5.22
2023-03-04T23:20:25.571Z,6.85
2023-03-04T23:22:55.090Z,3.63
2023-03-04T23:25:25.010Z,5.60
2023-03-04T23:27:54.689Z,2.65
2023-03-04T23:30:23.958Z,2.35
2023-03-04T23:32:53.465Z,2.45
2023-03-04T23:35:24.223Z,2.13
2023-03-04T23:37:53.788Z,2.70
2023-03-04T23:40:23.041Z,2.83
2023-03-04T23:42:52.590Z,2.92
2023-03-04T23:45:21.930Z,2.67
2023-03-04T23:47:51.530Z,3.00
2023-03-04T23:50:21.327Z,5.85
2023-03-04T23:52:52.268Z,2.95
2023-03-04T23:55:22.280Z,3.20
2023-03-04T23:57:51.771Z,1.80
